KCRQ

Mc Clellan-Palomar Airport

Carlsbad, California, USA
METAR KCRQ 171553Z 25003KT 7SM OVC013 23/19 A3006 RMK AO2 SLP177 T02280194
Observed Flight Rules
Aug-17 @ 15:53 UTC (58 minutes ago) Marginal Visual Flight Rules
Wind Visibility Clouds
250° at 3 knots 7 miles
  • Overcast at 1,300' AGL
Temperatures Readings
Current 23°C / 73°F
Dewpoint 19°C / 66°F
Humidity 78%
Altimeter 30.06" Hg
Pressure 1017.7 hPa
Elevation 99
METAR KCRQ 171553Z 25003KT 7SM OVC013 23/19 A3006 RMK AO2 SLP177 T02280194
Observed Flight Rules
Aug-17 @ 15:53 UTC
(58 minutes ago)
MVFR
Wind Visibility
250° at 3 knots 7 miles
Clouds
  • Overcast at 1,300' AGL
Temperature Dewpoint
23°C / 73°F 19°C / 66°F
Humidity Altimeter Pressure
78% 30.06" Hg 1017.7 hPa